createdAt,value
2023-04-24T00:02:14.855Z,59.09
2023-04-24T00:04:47.015Z,59.14
2023-04-24T00:07:15.431Z,59.13
2023-04-24T00:09:44.997Z,59.17
2023-04-24T00:12:13.437Z,59.06
2023-04-24T00:14:41.753Z,59.12
2023-04-24T00:17:09.928Z,59.22
2023-04-24T00:19:38.537Z,59.18
2023-04-24T00:22:06.665Z,59.23
2023-04-24T00:24:34.752Z,59.30
2023-04-24T00:27:03.646Z,59.41
2023-04-24T00:29:31.847Z,59.33
2023-04-24T00:32:00.068Z,59.36
2023-04-24T00:34:28.335Z,59.41
2023-04-24T00:36:56.399Z,59.42
2023-04-24T00:39:24.550Z,59.47
2023-04-24T00:41:53.732Z,59.46
2023-04-24T00:44:22.086Z,59.51
2023-04-24T00:46:55.661Z,59.56
2023-04-24T00:49:23.888Z,59.59
2023-04-24T00:51:52.367Z,59.64
2023-04-24T00:54:20.684Z,59.74
2023-04-24T00:56:49.484Z,59.82
2023-04-24T00:59:18.821Z,59.85
2023-04-24T01:01:48.044Z,59.80
2023-04-24T01:04:19.077Z,59.93
2023-04-24T01:06:47.557Z,59.98
2023-04-24T01:09:16.305Z,60.01
2023-04-24T01:11:44.544Z,60.09
2023-04-24T01:14:13.807Z,60.09
2023-04-24T01:16:43.155Z,60.08
2023-04-24T01:19:13.637Z,60.15
2023-04-24T01:21:44.392Z,60.26
2023-04-24T01:24:13.174Z,60.30
2023-04-24T01:26:41.417Z,60.32
2023-04-24T01:29:09.597Z,60.37
2023-04-24T01:31:38.234Z,60.43
2023-04-24T01:34:07.594Z,60.40
2023-04-24T01:36:36.404Z,60.53
2023-04-24T01:39:04.795Z,60.63
2023-04-24T01:41:33.744Z,60.59
2023-04-24T01:44:02.457Z,60.70
2023-04-24T01:46:31.758Z,60.69
2023-04-24T01:49:01.914Z,60.74
2023-04-24T01:51:30.117Z,60.77
2023-04-24T01:53:58.677Z,60.78
2023-04-24T01:56:29.764Z,60.86
2023-04-24T01:58:58.741Z,60.86
2023-04-24T02:01:27.058Z,60.96
2023-04-24T02:03:55.342Z,60.89
2023-04-24T02:06:23.553Z,60.93
2023-04-24T02:08:51.660Z,61.12
2023-04-24T02:11:19.897Z,61.07
2023-04-24T02:13:48.085Z,61.05
2023-04-24T02:16:16.289Z,61.16
2023-04-24T02:18:44.841Z,61.14
2023-04-24T02:21:12.942Z,61.21
2023-04-24T02:23:41.194Z,61.35
2023-04-24T02:26:09.600Z,61.35
2023-04-24T02:28:37.690Z,61.38
2023-04-24T02:31:07.385Z,61.43
2023-04-24T02:33:36.549Z,61.40
2023-04-24T02:36:04.918Z,61.37
2023-04-24T02:38:32.977Z,61.50
2023-04-24T02:41:01.886Z,61.50
2023-04-24T02:43:30.065Z,61.68
2023-04-24T02:45:58.184Z,61.69
2023-04-24T02:48:26.512Z,61.69
2023-04-24T02:50:54.758Z,61.82
2023-04-24T02:53:23.899Z,61.81
2023-04-24T02:55:52.010Z,61.91
2023-04-24T02:58:21.147Z,61.93
2023-04-24T03:00:49.327Z,61.86
2023-04-24T03:03:17.570Z,62.00
2023-04-24T03:05:45.844Z,62.02
2023-04-24T03:08:15.618Z,62.05
2023-04-24T03:10:46.869Z,62.15
2023-04-24T03:13:17.943Z,62.17
2023-04-24T03:15:47.616Z,62.13
2023-04-24T03:18:15.936Z,62.19
2023-04-24T03:20:47.625Z,62.19
2023-04-24T03:23:16.276Z,62.27
2023-04-24T03:25:45.140Z,62.27
2023-04-24T03:28:13.927Z,62.32
2023-04-24T03:30:50.371Z,62.42
2023-04-24T03:33:19.611Z,62.36
2023-04-24T03:35:56.641Z,62.40
2023-04-24T03:38:25.004Z,62.46
2023-04-24T03:41:00.351Z,62.41
2023-04-24T03:43:39.275Z,62.51
2023-04-24T03:46:10.425Z,62.54
2023-04-24T03:48:42.289Z,62.54
2023-04-24T03:51:10.907Z,62.60
2023-04-24T03:53:40.748Z,62.58
2023-04-24T03:56:09.241Z,62.64
2023-04-24T03:58:38.954Z,62.60
2023-04-24T04:01:07.560Z,62.72
2023-04-24T04:03:51.066Z,62.69
2023-04-24T04:06:22.663Z,62.69
2023-04-24T04:08:52.015Z,62.74
2023-04-24T04:11:21.049Z,62.82
2023-04-24T04:13:49.232Z,62.80
2023-04-24T04:16:20.129Z,62.80
2023-04-24T04:18:49.796Z,62.99
2023-04-24T04:21:18.121Z,62.97
2023-04-24T04:23:46.528Z,63.01
2023-04-24T04:26:36.591Z,62.96
2023-04-24T04:29:10.180Z,63.03
2023-04-24T04:31:42.093Z,63.28
2023-04-24T04:34:13.845Z,63.32
2023-04-24T04:36:43.056Z,63.22
2023-04-24T04:39:34.087Z,63.29
2023-04-24T04:42:08.820Z,63.29
2023-04-24T04:44:41.001Z,63.27
2023-04-24T04:47:11.939Z,63.40
2023-04-24T04:49:40.435Z,63.40
2023-04-24T04:52:12.703Z,63.46
2023-04-24T04:54:41.220Z,63.45
2023-04-24T04:57:10.091Z,63.46
2023-04-24T04:59:38.481Z,63.48
2023-04-24T05:02:10.594Z,63.45
2023-04-24T05:04:39.897Z,63.47
2023-04-24T05:07:08.498Z,63.52
2023-04-24T05:09:39.549Z,63.51
2023-04-24T05:12:08.693Z,63.52
2023-04-24T05:14:41.624Z,63.56
2023-04-24T05:17:11.166Z,63.60
2023-04-24T05:19:39.820Z,63.56
2023-04-24T05:22:10.739Z,63.63
2023-04-24T05:24:43.390Z,63.60
2023-04-24T05:27:20.493Z,63.66
2023-04-24T05:29:50.598Z,63.71
2023-04-24T05:32:19.043Z,63.61
2023-04-24T05:34:47.714Z,63.61
2023-04-24T05:37:15.856Z,63.72
2023-04-24T05:39:44.282Z,63.73
2023-04-24T05:42:12.856Z,63.80
2023-04-24T05:44:41.244Z,63.78
2023-04-24T05:47:09.297Z,63.77
2023-04-24T05:49:37.433Z,63.74
2023-04-24T05:52:07.588Z,63.85
2023-04-24T05:54:36.261Z,63.78
2023-04-24T05:57:08.531Z,63.93
2023-04-24T05:59:50.135Z,63.85
2023-04-24T06:02:20.847Z,63.89
2023-04-24T06:04:49.525Z,63.86
2023-04-24T06:07:19.248Z,63.88
2023-04-24T06:09:48.318Z,63.85
2023-04-24T06:12:17.754Z,63.89
2023-04-24T06:14:56.604Z,63.94
2023-04-24T06:17:44.925Z,64.02
2023-04-24T06:20:14.044Z,64.05
2023-04-24T06:22:42.091Z,64.05
2023-04-24T06:25:12.113Z,64.09
2023-04-24T06:27:40.551Z,64.06
2023-04-24T06:30:10.355Z,64.09
2023-04-24T06:32:38.493Z,64.11
2023-04-24T06:35:09.173Z,64.12
2023-04-24T06:37:37.676Z,64.11
2023-04-24T06:40:08.332Z,64.10
2023-04-24T06:42:37.607Z,64.10
2023-04-24T06:45:06.339Z,64.05
2023-04-24T06:47:34.441Z,64.05
2023-04-24T06:50:02.635Z,64.19
2023-04-24T06:52:33.908Z,64.21
2023-04-24T06:55:06.079Z,64.27
2023-04-24T06:57:34.129Z,64.24
2023-04-24T07:00:02.529Z,64.16
2023-04-24T07:02:31.111Z,64.30
2023-04-24T07:04:59.222Z,64.16
2023-04-24T07:07:27.640Z,64.17
2023-04-24T07:09:57.458Z,64.29
2023-04-24T07:12:25.496Z,64.26
2023-04-24T07:14:53.556Z,64.38
2023-04-24T07:17:22.158Z,64.32
2023-04-24T07:19:51.070Z,64.34
2023-04-24T07:22:19.273Z,64.37
2023-04-24T07:24:47.580Z,64.52
2023-04-24T07:27:16.356Z,64.45
2023-04-24T07:29:44.886Z,64.54
2023-04-24T07:32:13.541Z,64.49
2023-04-24T07:34:41.793Z,64.63
2023-04-24T07:37:10.024Z,64.73
2023-04-24T07:39:38.132Z,64.79
2023-04-24T07:42:06.325Z,64.78
2023-04-24T07:44:34.457Z,64.96
2023-04-24T07:47:02.748Z,64.94
2023-04-24T07:49:30.880Z,64.89
2023-04-24T07:52:01.533Z,64.92
2023-04-24T07:54:30.533Z,65.02
2023-04-24T07:56:58.662Z,65.03
2023-04-24T07:59:26.842Z,65.15
2023-04-24T08:01:55.817Z,65.24
2023-04-24T08:04:24.165Z,65.22
2023-04-24T08:06:52.659Z,65.21
2023-04-24T08:09:21.411Z,65.31
2023-04-24T08:11:49.718Z,65.38
2023-04-24T08:14:17.858Z,65.35
2023-04-24T08:16:46.433Z,65.42
2023-04-24T08:19:14.557Z,65.41
2023-04-24T08:21:42.582Z,65.44
2023-04-24T08:24:10.828Z,65.48
2023-04-24T08:26:39.045Z,65.58
2023-04-24T08:29:07.967Z,65.66
2023-04-24T08:31:36.982Z,65.64
2023-04-24T08:34:05.288Z,65.64
2023-04-24T08:36:45.961Z,65.70
2023-04-24T08:39:16.497Z,65.68
2023-04-24T08:41:46.306Z,65.72
2023-04-24T08:44:16.843Z,65.79
2023-04-24T08:46:48.819Z,65.85
2023-04-24T08:49:17.758Z,65.72
2023-04-24T08:51:48.668Z,65.71
2023-04-24T08:54:17.902Z,65.83
2023-04-24T08:56:49.290Z,65.89
2023-04-24T08:59:17.791Z,65.94
2023-04-24T09:01:47.835Z,66.02
2023-04-24T09:04:19.298Z,66.12
2023-04-24T09:06:50.047Z,66.21
2023-04-24T09:09:19.446Z,66.19
2023-04-24T09:11:48.104Z,66.23
2023-04-24T09:14:17.133Z,66.39
2023-04-24T09:16:45.286Z,66.42
2023-04-24T09:19:13.623Z,66.40
2023-04-24T09:21:44.875Z,66.38
2023-04-24T09:24:19.537Z,66.51
2023-04-24T09:26:48.532Z,66.51
2023-04-24T09:29:17.980Z,66.45
2023-04-24T09:31:47.154Z,66.55
2023-04-24T09:34:15.695Z,66.52
2023-04-24T09:36:44.127Z,66.58
2023-04-24T09:39:16.912Z,66.68
2023-04-24T09:41:46.615Z,66.78
2023-04-24T09:44:27.130Z,66.83
2023-04-24T09:46:57.672Z,66.81
2023-04-24T09:49:31.051Z,66.86
2023-04-24T09:52:07.858Z,66.82
2023-04-24T09:54:37.958Z,66.78
2023-04-24T09:57:09.233Z,66.79
2023-04-24T09:59:45.280Z,66.80
2023-04-24T10:02:21.223Z,66.80
2023-04-24T10:05:01.647Z,66.88
2023-04-24T10:07:30.008Z,66.94
2023-04-24T10:09:58.740Z,66.95
2023-04-24T10:12:28.321Z,66.96
2023-04-24T10:14:57.454Z,67.08
2023-04-24T10:17:26.265Z,67.14
2023-04-24T10:19:55.349Z,67.16
2023-04-24T10:22:24.885Z,67.20
2023-04-24T10:24:53.298Z,67.23
2023-04-24T10:27:22.737Z,67.25
2023-04-24T10:29:54.450Z,67.26
2023-04-24T10:32:22.750Z,67.28
2023-04-24T10:34:50.903Z,67.33
2023-04-24T10:37:20.029Z,67.27
2023-04-24T10:39:52.636Z,67.24
2023-04-24T10:42:20.944Z,67.22
2023-04-24T10:44:50.307Z,67.24
2023-04-24T10:47:18.802Z,67.10
2023-04-24T10:49:46.923Z,67.23
2023-04-24T10:52:16.036Z,67.13
2023-04-24T10:54:48.427Z,67.12
2023-04-24T10:57:19.433Z,67.03
2023-04-24T10:59:49.705Z,66.89
2023-04-24T11:02:19.416Z,66.81
2023-04-24T11:04:52.327Z,66.72
2023-04-24T11:07:22.239Z,66.60
2023-04-24T11:09:59.875Z,66.54
2023-04-24T11:12:28.064Z,66.57
2023-04-24T11:15:00.534Z,66.46
2023-04-24T11:17:34.366Z,66.44
2023-04-24T11:20:19.038Z,66.48
2023-04-24T11:22:58.941Z,66.36
2023-04-24T11:25:32.260Z,66.23
2023-04-24T11:28:07.310Z,66.21
2023-04-24T11:30:36.377Z,66.11
2023-04-24T11:33:06.108Z,66.01
2023-04-24T11:35:41.786Z,65.79
2023-04-24T11:40:43.074Z,65.54
2023-04-24T11:43:12.222Z,65.58
2023-04-24T11:45:49.460Z,65.33
2023-04-24T11:48:23.644Z,65.31
2023-04-24T11:50:52.950Z,64.89
2023-04-24T11:53:22.796Z,64.87
2023-04-24T11:55:51.082Z,64.75
2023-04-24T11:58:23.287Z,64.55
2023-04-24T12:00:59.263Z,64.31
2023-04-24T12:03:28.559Z,64.27
2023-04-24T12:06:09.130Z,64.14
2023-04-24T12:08:38.570Z,63.93
2023-04-24T12:11:08.377Z,63.95
2023-04-24T12:13:37.535Z,63.88
2023-04-24T12:16:06.913Z,63.92
2023-04-24T12:18:35.677Z,63.80
2023-04-24T12:21:22.966Z,63.48
2023-04-24T12:23:52.142Z,63.31
2023-04-24T12:26:22.391Z,63.18
2023-04-24T12:28:50.808Z,62.70
2023-04-24T12:31:21.744Z,62.67
2023-04-24T12:33:50.022Z,62.37
2023-04-24T12:36:18.183Z,61.99
2023-04-24T12:38:47.636Z,61.68
2023-04-24T12:41:16.303Z,61.52
2023-04-24T12:43:54.801Z,61.49
2023-04-24T12:46:23.228Z,61.26
2023-04-24T12:48:51.458Z,61.31
2023-04-24T12:51:19.546Z,60.80
2023-04-24T12:53:47.712Z,60.59
2023-04-24T12:56:15.938Z,60.60
2023-04-24T12:58:44.075Z,60.10
2023-04-24T13:01:12.615Z,60.13
2023-04-24T13:03:41.147Z,59.87
2023-04-24T13:06:09.779Z,59.77
2023-04-24T13:08:37.932Z,59.46
2023-04-24T13:11:06.075Z,59.12
2023-04-24T13:13:34.275Z,58.78
2023-04-24T13:16:02.850Z,58.44
2023-04-24T13:18:31.146Z,58.02
2023-04-24T13:20:59.526Z,57.95
2023-04-24T13:23:27.640Z,57.60
2023-04-24T13:25:58.595Z,57.28
2023-04-24T13:28:26.985Z,56.95
2023-04-24T13:30:55.077Z,56.56
2023-04-24T13:33:23.238Z,56.41
2023-04-24T13:35:51.404Z,56.27
2023-04-24T13:38:22.689Z,55.98
2023-04-24T13:40:51.029Z,55.55
2023-04-24T13:43:19.260Z,55.68
2023-04-24T13:45:47.392Z,55.61
2023-04-24T13:48:18.980Z,55.48
2023-04-24T13:50:49.435Z,55.41
2023-04-24T13:53:17.919Z,55.17
2023-04-24T13:55:46.057Z,54.69
2023-04-24T13:58:14.223Z,54.52
2023-04-24T14:00:42.488Z,54.47
2023-04-24T14:03:10.784Z,54.16
2023-04-24T14:05:39.011Z,53.90
2023-04-24T14:08:07.417Z,53.87
2023-04-24T14:10:35.724Z,53.67
2023-04-24T14:13:04.515Z,53.42
2023-04-24T14:15:32.722Z,53.28
2023-04-24T14:18:01.028Z,53.17
2023-04-24T14:20:29.266Z,52.59
2023-04-24T14:23:00.165Z,52.56
2023-04-24T14:25:28.481Z,52.31
2023-04-24T14:27:56.910Z,52.16
2023-04-24T14:30:25.015Z,51.91
2023-04-24T14:32:53.282Z,51.85
2023-04-24T14:35:21.489Z,51.49
2023-04-24T14:37:50.278Z,51.10
2023-04-24T14:40:39.564Z,50.80
2023-04-24T14:43:06.484Z,50.80
2023-04-24T14:45:34.653Z,50.48
2023-04-24T14:48:02.773Z,49.95
2023-04-24T14:50:31.297Z,49.69
2023-04-24T14:52:59.659Z,49.53
2023-04-24T14:55:27.708Z,49.28
2023-04-24T14:57:56.577Z,49.20
2023-04-24T15:00:25.093Z,49.06
2023-04-24T15:02:53.453Z,48.69
2023-04-24T15:05:22.310Z,48.64
2023-04-24T15:07:51.162Z,48.61
2023-04-24T15:10:19.881Z,48.46
2023-04-24T15:12:48.075Z,48.28
2023-04-24T15:15:16.498Z,48.06
2023-04-24T15:17:44.673Z,48.23
2023-04-24T15:20:12.909Z,48.28
2023-04-24T15:22:41.067Z,48.38
2023-04-24T15:25:09.463Z,48.44
2023-04-24T15:27:42.349Z,48.47
2023-04-24T15:30:11.727Z,48.50
2023-04-24T15:32:40.640Z,48.62
2023-04-24T15:35:10.393Z,48.72
2023-04-24T15:37:39.631Z,48.71
2023-04-24T15:40:08.812Z,48.50
2023-04-24T15:42:37.191Z,48.66
2023-04-24T15:45:05.517Z,48.84
2023-04-24T15:47:34.087Z,49.03
2023-04-24T15:50:03.845Z,49.33
2023-04-24T15:52:31.938Z,49.28
2023-04-24T15:55:00.223Z,49.48
2023-04-24T15:57:28.314Z,49.69
2023-04-24T15:59:56.518Z,50.12
2023-04-24T16:02:24.988Z,50.43
2023-04-24T16:04:54.346Z,50.38
2023-04-24T16:07:22.685Z,50.29
2023-04-24T16:09:50.901Z,50.69
2023-04-24T16:12:19.795Z,51.02
2023-04-24T16:14:48.071Z,50.75
2023-04-24T16:17:16.285Z,51.02
2023-04-24T16:19:44.495Z,51.12
2023-04-24T16:22:12.624Z,51.14
2023-04-24T16:24:40.761Z,51.27
2023-04-24T16:27:09.118Z,51.40
2023-04-24T16:29:37.261Z,51.61
2023-04-24T16:32:05.397Z,51.87
2023-04-24T16:34:33.624Z,51.75
2023-04-24T16:37:01.978Z,52.00
2023-04-24T16:39:30.515Z,52.21
2023-04-24T16:41:59.981Z,52.40
2023-04-24T16:44:28.802Z,52.58
2023-04-24T16:46:57.385Z,52.64
2023-04-24T16:49:31.045Z,52.71
2023-04-24T16:51:59.754Z,52.63
2023-04-24T16:54:28.340Z,52.94
2023-04-24T16:56:57.006Z,53.19
2023-04-24T16:59:25.088Z,53.20
2023-04-24T17:01:53.198Z,53.31
2023-04-24T17:04:21.431Z,53.28
2023-04-24T17:06:49.645Z,53.40
2023-04-24T17:09:17.881Z,53.62
2023-04-24T17:11:46.144Z,53.76
2023-04-24T17:14:14.227Z,53.55
2023-04-24T17:16:42.447Z,53.90
2023-04-24T17:19:11.336Z,54.00
2023-04-24T17:21:39.521Z,53.96
2023-04-24T17:24:07.675Z,54.11
2023-04-24T17:26:35.886Z,54.04
2023-04-24T17:29:04.272Z,54.01
2023-04-24T17:31:32.435Z,54.13
2023-04-24T17:34:00.705Z,54.31
2023-04-24T17:36:28.815Z,54.24
2023-04-24T17:38:57.089Z,54.43
2023-04-24T17:41:25.401Z,54.59
2023-04-24T17:43:53.531Z,54.71
2023-04-24T17:46:21.720Z,54.74
2023-04-24T17:48:50.081Z,54.61
2023-04-24T17:51:18.159Z,54.77
2023-04-24T17:53:46.345Z,54.64
2023-04-24T17:56:14.719Z,54.82
2023-04-24T17:58:42.946Z,54.75
2023-04-24T18:01:11.122Z,54.87
2023-04-24T18:03:39.528Z,54.73
2023-04-24T18:06:07.818Z,54.68
2023-04-24T18:08:36.689Z,54.72
2023-04-24T18:11:05.151Z,54.85
2023-04-24T18:13:33.451Z,54.99
2023-04-24T18:16:01.693Z,55.09
2023-04-24T18:18:30.130Z,55.32
2023-04-24T18:20:58.506Z,55.31
2023-04-24T18:23:26.678Z,55.59
2023-04-24T18:25:54.783Z,55.70
2023-04-24T18:28:23.104Z,55.68
2023-04-24T18:30:51.696Z,55.88
2023-04-24T18:33:20.402Z,55.95
2023-04-24T18:35:48.576Z,55.95
2023-04-24T18:38:17.256Z,56.21
2023-04-24T18:40:45.583Z,56.26
2023-04-24T18:43:13.731Z,56.35
2023-04-24T18:45:41.854Z,56.41
2023-04-24T18:48:10.241Z,56.54
2023-04-24T18:50:40.748Z,56.64
2023-04-24T18:53:09.968Z,56.77
2023-04-24T18:55:38.452Z,56.79
2023-04-24T18:58:06.670Z,56.86
2023-04-24T19:00:34.894Z,57.01
2023-04-24T19:03:03.519Z,57.09
2023-04-24T19:05:31.963Z,57.09
2023-04-24T19:08:00.109Z,57.32
2023-04-24T19:10:29.176Z,57.48
2023-04-24T19:12:57.507Z,57.50
2023-04-24T19:15:25.960Z,57.46
2023-04-24T19:17:54.388Z,57.52
2023-04-24T19:20:22.753Z,57.62
2023-04-24T19:22:51.215Z,57.71
2023-04-24T19:25:20.107Z,57.73
2023-04-24T19:27:48.512Z,57.86
2023-04-24T19:30:16.676Z,57.94
2023-04-24T19:32:44.788Z,57.95
2023-04-24T19:35:13.124Z,57.90
2023-04-24T19:37:41.544Z,57.83
2023-04-24T19:40:09.921Z,57.97
2023-04-24T19:42:43.962Z,57.98
2023-04-24T19:45:13.519Z,58.08
2023-04-24T19:47:41.799Z,58.16
2023-04-24T19:50:10.272Z,58.32
2023-04-24T19:52:38.432Z,58.53
2023-04-24T19:55:08.444Z,58.49
2023-04-24T19:57:36.565Z,58.72
2023-04-24T20:00:05.301Z,58.86
2023-04-24T20:02:33.463Z,58.93
2023-04-24T20:05:02.119Z,59.23
2023-04-24T20:07:30.361Z,59.37
2023-04-24T20:09:58.683Z,59.56
2023-04-24T20:12:26.881Z,59.79
2023-04-24T20:14:55.380Z,59.83
2023-04-24T20:17:23.498Z,59.96
2023-04-24T20:19:51.812Z,59.99
2023-04-24T20:22:20.174Z,60.12
2023-04-24T20:24:48.396Z,60.30
2023-04-24T20:27:16.771Z,60.51
2023-04-24T20:29:45.065Z,60.85
2023-04-24T20:32:13.175Z,61.02
2023-04-24T20:34:41.598Z,61.19
2023-04-24T20:37:09.766Z,61.42
2023-04-24T20:39:38.925Z,61.58
2023-04-24T20:42:07.803Z,61.70
2023-04-24T20:44:35.976Z,61.75
2023-04-24T20:47:04.237Z,61.90
2023-04-24T20:49:32.512Z,62.11
2023-04-24T20:52:00.708Z,62.15
2023-04-24T20:54:29.002Z,62.25
2023-04-24T20:56:58.128Z,62.27
2023-04-24T20:59:26.464Z,62.47
2023-04-24T21:01:54.988Z,62.45
2023-04-24T21:04:23.224Z,62.58
2023-04-24T21:06:51.588Z,62.80
2023-04-24T21:09:19.737Z,62.88
2023-04-24T21:11:47.882Z,62.87
2023-04-24T21:14:16.160Z,62.92
2023-04-24T21:16:44.337Z,62.92
2023-04-24T21:19:12.689Z,63.03
2023-04-24T21:21:40.792Z,63.02
2023-04-24T21:24:08.912Z,63.10
2023-04-24T21:26:37.277Z,63.15
2023-04-24T21:29:05.580Z,63.18
2023-04-24T21:31:33.695Z,63.16
2023-04-24T21:34:01.726Z,63.21
2023-04-24T21:36:32.354Z,63.27
2023-04-24T21:39:01.068Z,63.19
2023-04-24T21:41:29.240Z,63.33
2023-04-24T21:43:57.493Z,63.33
2023-04-24T21:46:26.707Z,63.40
2023-04-24T21:48:54.942Z,63.36
2023-04-24T21:51:23.161Z,63.36
2023-04-24T21:53:51.757Z,63.31
2023-04-24T21:56:20.602Z,63.33
2023-04-24T21:58:48.871Z,63.27
2023-04-24T22:01:17.231Z,63.29
2023-04-24T22:03:45.447Z,63.34
2023-04-24T22:06:14.786Z,63.33
2023-04-24T22:08:47.399Z,63.46
2023-04-24T22:11:25.903Z,63.53
2023-04-24T22:13:55.532Z,63.64
2023-04-24T22:16:24.497Z,63.77
2023-04-24T22:18:55.726Z,63.69
2023-04-24T22:21:23.928Z,63.92
2023-04-24T22:23:52.383Z,63.93
2023-04-24T22:26:21.076Z,63.97
2023-04-24T22:28:49.417Z,64.05
2023-04-24T22:31:17.620Z,63.97
2023-04-24T22:33:49.385Z,64.07
2023-04-24T22:36:17.711Z,64.11
2023-04-24T22:38:45.868Z,64.12
2023-04-24T22:41:14.273Z,64.14
2023-04-24T22:43:42.601Z,64.19
2023-04-24T22:46:10.890Z,64.15
2023-04-24T22:48:39.012Z,64.14
2023-04-24T22:51:07.118Z,64.15
2023-04-24T22:53:36.341Z,64.25
2023-04-24T22:56:04.746Z,64.25
2023-04-24T22:58:33.112Z,64.28
2023-04-24T23:01:01.553Z,64.08
2023-04-24T23:03:29.841Z,64.15
2023-04-24T23:05:58.030Z,64.17
2023-04-24T23:08:26.278Z,64.19
2023-04-24T23:10:54.373Z,64.17
2023-04-24T23:13:22.479Z,64.25
2023-04-24T23:15:51.937Z,64.09
2023-04-24T23:18:21.611Z,64.27
2023-04-24T23:20:49.788Z,64.31
2023-04-24T23:23:18.180Z,64.29
2023-04-24T23:25:46.220Z,64.24
2023-04-24T23:28:14.621Z,64.24
2023-04-24T23:30:42.902Z,64.17
2023-04-24T23:33:11.955Z,64.22
2023-04-24T23:35:40.621Z,64.17
2023-04-24T23:38:08.932Z,64.20
2023-04-24T23:40:37.105Z,64.26
2023-04-24T23:43:08.056Z,64.22
2023-04-24T23:45:37.179Z,64.25
2023-04-24T23:48:05.949Z,64.36
2023-04-24T23:50:34.590Z,64.32
2023-04-24T23:53:02.823Z,64.17
2023-04-24T23:55:30.958Z,64.17
2023-04-24T23:57:59.265Z,64.20
